sensor_id;sensor_type;location;lat;lon;timestamp;P1;durP1;ratioP1;P2;durP2;ratioP2
12412;SDS011;13877;18.896;-99.222;2023-04-03T00:01:01;12.93;;;7.60;;
12412;SDS011;13877;18.896;-99.222;2023-04-03T00:03:29;17.85;;;7.30;;
12412;SDS011;13877;18.896;-99.222;2023-04-03T00:05:56;11.27;;;7.15;;
12412;SDS011;13877;18.896;-99.222;2023-04-03T00:08:23;19.20;;;7.20;;
12412;SDS011;13877;18.896;-99.222;2023-04-03T00:10:51;20.10;;;6.90;;
12412;SDS011;13877;18.896;-99.222;2023-04-03T00:13:17;16.13;;;6.90;;
12412;SDS011;13877;18.896;-99.222;2023-04-03T00:15:44;14.05;;;7.55;;
12412;SDS011;13877;18.896;-99.222;2023-04-03T00:18:11;15.93;;;7.57;;
12412;SDS011;13877;18.896;-99.222;2023-04-03T00:20:38;14.95;;;7.53;;
12412;SDS011;13877;18.896;-99.222;2023-04-03T00:23:06;17.00;;;8.50;;
12412;SDS011;13877;18.896;-99.222;2023-04-03T00:25:35;15.90;;;7.63;;
12412;SDS011;13877;18.896;-99.222;2023-04-03T00:28:03;13.73;;;7.00;;
12412;SDS011;13877;18.896;-99.222;2023-04-03T00:30:31;15.65;;;7.30;;
12412;SDS011;13877;18.896;-99.222;2023-04-03T00:32:58;19.15;;;7.45;;
12412;SDS011;13877;18.896;-99.222;2023-04-03T00:35:26;17.02;;;7.72;;
12412;SDS011;13877;18.896;-99.222;2023-04-03T00:37:53;14.35;;;7.90;;
12412;SDS011;13877;18.896;-99.222;2023-04-03T00:40:23;16.45;;;8.55;;
12412;SDS011;13877;18.896;-99.222;2023-04-03T00:42:55;18.42;;;7.80;;
12412;SDS011;13877;18.896;-99.222;2023-04-03T00:45:31;12.35;;;7.78;;
12412;SDS011;13877;18.896;-99.222;2023-04-03T00:48:02;13.98;;;8.30;;
12412;SDS011;13877;18.896;-99.222;2023-04-03T00:50:37;15.45;;;7.65;;
12412;SDS011;13877;18.896;-99.222;2023-04-03T00:53:07;23.48;;;8.50;;
12412;SDS011;13877;18.896;-99.222;2023-04-03T00:55:37;29.45;;;8.32;;
12412;SDS011;13877;18.896;-99.222;2023-04-03T00:58:06;23.17;;;8.07;;
12412;SDS011;13877;18.896;-99.222;2023-04-03T01:00:34;19.10;;;8.63;;
12412;SDS011;13877;18.896;-99.222;2023-04-03T01:03:05;20.55;;;7.68;;
12412;SDS011;13877;18.896;-99.222;2023-04-03T01:05:32;18.83;;;7.72;;
12412;SDS011;13877;18.896;-99.222;2023-04-03T01:08:01;21.23;;;8.30;;
12412;SDS011;13877;18.896;-99.222;2023-04-03T01:10:28;17.85;;;7.53;;
12412;SDS011;13877;18.896;-99.222;2023-04-03T01:12:57;16.83;;;7.55;;
12412;SDS011;13877;18.896;-99.222;2023-04-03T01:15:27;27.90;;;8.57;;
12412;SDS011;13877;18.896;-99.222;2023-04-03T01:18:00;21.10;;;8.27;;
12412;SDS011;13877;18.896;-99.222;2023-04-03T01:25:41;28.45;;;9.27;;
12412;SDS011;13877;18.896;-99.222;2023-04-03T01:28:18;20.65;;;9.95;;
12412;SDS011;13877;18.896;-99.222;2023-04-03T01:33:45;24.65;;;9.73;;
12412;SDS011;13877;18.896;-99.222;2023-04-03T01:36:45;23.40;;;8.35;;
12412;SDS011;13877;18.896;-99.222;2023-04-03T01:39:05;26.38;;;9.10;;
12412;SDS011;13877;18.896;-99.222;2023-04-03T01:41:32;21.27;;;8.90;;
12412;SDS011;13877;18.896;-99.222;2023-04-03T01:44:08;19.30;;;9.43;;
12412;SDS011;13877;18.896;-99.222;2023-04-03T01:46:35;17.98;;;8.32;;
12412;SDS011;13877;18.896;-99.222;2023-04-03T01:49:04;19.50;;;8.60;;
12412;SDS011;13877;18.896;-99.222;2023-04-03T01:51:31;24.90;;;9.75;;
12412;SDS011;13877;18.896;-99.222;2023-04-03T01:53:59;17.70;;;9.40;;
12412;SDS011;13877;18.896;-99.222;2023-04-03T01:56:26;22.02;;;9.35;;
12412;SDS011;13877;18.896;-99.222;2023-04-03T01:58:54;31.63;;;9.65;;
12412;SDS011;13877;18.896;-99.222;2023-04-03T02:01:21;19.48;;;9.23;;
12412;SDS011;13877;18.896;-99.222;2023-04-03T02:03:48;21.48;;;9.60;;
12412;SDS011;13877;18.896;-99.222;2023-04-03T02:06:16;19.70;;;8.90;;
12412;SDS011;13877;18.896;-99.222;2023-04-03T02:08:43;21.33;;;8.98;;
12412;SDS011;13877;18.896;-99.222;2023-04-03T02:11:10;30.10;;;9.65;;
12412;SDS011;13877;18.896;-99.222;2023-04-03T02:13:37;28.70;;;9.88;;
12412;SDS011;13877;18.896;-99.222;2023-04-03T02:16:08;29.08;;;10.13;;
12412;SDS011;13877;18.896;-99.222;2023-04-03T02:18:37;20.75;;;9.77;;
12412;SDS011;13877;18.896;-99.222;2023-04-03T02:21:04;22.13;;;10.68;;
12412;SDS011;13877;18.896;-99.222;2023-04-03T02:23:31;29.90;;;11.43;;
12412;SDS011;13877;18.896;-99.222;2023-04-03T02:26:07;30.35;;;10.85;;
12412;SDS011;13877;18.896;-99.222;2023-04-03T02:28:35;24.88;;;9.88;;
12412;SDS011;13877;18.896;-99.222;2023-04-03T02:31:03;22.35;;;9.43;;
12412;SDS011;13877;18.896;-99.222;2023-04-03T02:33:32;32.33;;;10.00;;
12412;SDS011;13877;18.896;-99.222;2023-04-03T02:36:02;28.13;;;9.82;;
12412;SDS011;13877;18.896;-99.222;2023-04-03T02:38:33;21.30;;;10.38;;
12412;SDS011;13877;18.896;-99.222;2023-04-03T02:41:04;28.20;;;10.75;;
12412;SDS011;13877;18.896;-99.222;2023-04-03T02:43:33;25.77;;;9.93;;
12412;SDS011;13877;18.896;-99.222;2023-04-03T02:46:00;19.25;;;9.38;;
12412;SDS011;13877;18.896;-99.222;2023-04-03T02:48:27;23.55;;;10.23;;
12412;SDS011;13877;18.896;-99.222;2023-04-03T02:50:55;23.85;;;9.43;;
12412;SDS011;13877;18.896;-99.222;2023-04-03T02:53:22;21.95;;;10.10;;
12412;SDS011;13877;18.896;-99.222;2023-04-03T02:55:51;30.02;;;10.02;;
12412;SDS011;13877;18.896;-99.222;2023-04-03T02:58:18;30.05;;;10.20;;
12412;SDS011;13877;18.896;-99.222;2023-04-03T03:00:46;29.08;;;10.75;;
12412;SDS011;13877;18.896;-99.222;2023-04-03T03:03:13;23.35;;;10.75;;
12412;SDS011;13877;18.896;-99.222;2023-04-03T03:05:44;29.40;;;11.05;;
12412;SDS011;13877;18.896;-99.222;2023-04-03T03:08:14;25.90;;;11.00;;
12412;SDS011;13877;18.896;-99.222;2023-04-03T03:10:41;20.95;;;11.02;;
12412;SDS011;13877;18.896;-99.222;2023-04-03T03:13:08;32.83;;;10.77;;
12412;SDS011;13877;18.896;-99.222;2023-04-03T03:15:36;29.80;;;11.73;;
12412;SDS011;13877;18.896;-99.222;2023-04-03T03:18:03;18.50;;;10.35;;
12412;SDS011;13877;18.896;-99.222;2023-04-03T03:20:31;23.92;;;10.15;;
12412;SDS011;13877;18.896;-99.222;2023-04-03T03:22:58;25.33;;;9.65;;
12412;SDS011;13877;18.896;-99.222;2023-04-03T03:25:25;29.80;;;11.05;;
12412;SDS011;13877;18.896;-99.222;2023-04-03T03:27:52;25.73;;;10.38;;
12412;SDS011;13877;18.896;-99.222;2023-04-03T03:30:19;23.50;;;10.68;;
12412;SDS011;13877;18.896;-99.222;2023-04-03T03:32:46;22.52;;;11.23;;
12412;SDS011;13877;18.896;-99.222;2023-04-03T03:35:13;27.88;;;10.45;;
12412;SDS011;13877;18.896;-99.222;2023-04-03T03:37:40;20.17;;;9.48;;
12412;SDS011;13877;18.896;-99.222;2023-04-03T03:40:08;26.98;;;10.13;;
12412;SDS011;13877;18.896;-99.222;2023-04-03T03:42:37;29.33;;;10.15;;
12412;SDS011;13877;18.896;-99.222;2023-04-03T03:45:04;21.55;;;10.57;;
12412;SDS011;13877;18.896;-99.222;2023-04-03T03:47:31;34.58;;;10.35;;
12412;SDS011;13877;18.896;-99.222;2023-04-03T03:49:58;27.20;;;10.55;;
12412;SDS011;13877;18.896;-99.222;2023-04-03T03:52:26;22.92;;;10.75;;
12412;SDS011;13877;18.896;-99.222;2023-04-03T03:54:55;25.33;;;11.52;;
12412;SDS011;13877;18.896;-99.222;2023-04-03T03:57:22;20.70;;;10.80;;
12412;SDS011;13877;18.896;-99.222;2023-04-03T03:59:49;59.17;;;12.07;;
12412;SDS011;13877;18.896;-99.222;2023-04-03T04:02:18;36.15;;;12.85;;
12412;SDS011;13877;18.896;-99.222;2023-04-03T04:04:45;33.08;;;12.38;;
12412;SDS011;13877;18.896;-99.222;2023-04-03T04:07:13;42.28;;;13.15;;
12412;SDS011;13877;18.896;-99.222;2023-04-03T04:09:40;37.45;;;14.68;;
12412;SDS011;13877;18.896;-99.222;2023-04-03T04:12:08;29.23;;;14.15;;
12412;SDS011;13877;18.896;-99.222;2023-04-03T04:14:36;33.00;;;14.77;;
12412;SDS011;13877;18.896;-99.222;2023-04-03T04:17:05;44.03;;;17.80;;
12412;SDS011;13877;18.896;-99.222;2023-04-03T04:19:32;61.17;;;21.95;;
12412;SDS011;13877;18.896;-99.222;2023-04-03T04:21:59;65.47;;;25.42;;
12412;SDS011;13877;18.896;-99.222;2023-04-03T04:24:28;71.03;;;28.75;;
12412;SDS011;13877;18.896;-99.222;2023-04-03T04:26:58;71.35;;;29.02;;
12412;SDS011;13877;18.896;-99.222;2023-04-03T04:29:25;75.22;;;32.30;;
12412;SDS011;13877;18.896;-99.222;2023-04-03T04:31:52;73.72;;;31.33;;
12412;SDS011;13877;18.896;-99.222;2023-04-03T04:34:21;80.15;;;32.53;;
12412;SDS011;13877;18.896;-99.222;2023-04-03T04:36:48;79.63;;;32.10;;
12412;SDS011;13877;18.896;-99.222;2023-04-03T04:39:15;78.82;;;31.52;;
12412;SDS011;13877;18.896;-99.222;2023-04-03T04:41:42;74.38;;;32.88;;
12412;SDS011;13877;18.896;-99.222;2023-04-03T04:44:09;72.70;;;33.03;;
12412;SDS011;13877;18.896;-99.222;2023-04-03T04:46:36;69.72;;;30.88;;
12412;SDS011;13877;18.896;-99.222;2023-04-03T04:49:04;75.63;;;30.25;;
12412;SDS011;13877;18.896;-99.222;2023-04-03T04:51:32;54.42;;;26.73;;
12412;SDS011;13877;18.896;-99.222;2023-04-03T04:53:59;57.25;;;23.85;;
12412;SDS011;13877;18.896;-99.222;2023-04-03T04:56:26;56.90;;;22.90;;
12412;SDS011;13877;18.896;-99.222;2023-04-03T04:58:55;69.72;;;23.25;;
12412;SDS011;13877;18.896;-99.222;2023-04-03T05:01:23;47.17;;;21.75;;
12412;SDS011;13877;18.896;-99.222;2023-04-03T05:03:57;52.17;;;22.05;;
12412;SDS011;13877;18.896;-99.222;2023-04-03T05:06:25;50.85;;;23.10;;
12412;SDS011;13877;18.896;-99.222;2023-04-03T05:08:53;52.00;;;22.75;;
12412;SDS011;13877;18.896;-99.222;2023-04-03T05:11:21;48.55;;;21.25;;
12412;SDS011;13877;18.896;-99.222;2023-04-03T05:13:50;50.00;;;22.70;;
12412;SDS011;13877;18.896;-99.222;2023-04-03T05:16:17;49.20;;;18.63;;
12412;SDS011;13877;18.896;-99.222;2023-04-03T05:18:45;45.50;;;19.35;;
12412;SDS011;13877;18.896;-99.222;2023-04-03T05:21:17;39.13;;;19.40;;
12412;SDS011;13877;18.896;-99.222;2023-04-03T05:23:46;59.13;;;18.05;;
12412;SDS011;13877;18.896;-99.222;2023-04-03T05:26:13;55.17;;;18.25;;
12412;SDS011;13877;18.896;-99.222;2023-04-03T05:28:42;52.90;;;19.23;;
12412;SDS011;13877;18.896;-99.222;2023-04-03T05:31:10;40.83;;;18.55;;
12412;SDS011;13877;18.896;-99.222;2023-04-03T05:33:40;52.63;;;18.98;;
12412;SDS011;13877;18.896;-99.222;2023-04-03T05:36:10;46.63;;;19.52;;
12412;SDS011;13877;18.896;-99.222;2023-04-03T05:38:43;45.88;;;19.30;;
12412;SDS011;13877;18.896;-99.222;2023-04-03T05:41:10;54.88;;;22.02;;
12412;SDS011;13877;18.896;-99.222;2023-04-03T05:43:38;63.70;;;19.65;;
12412;SDS011;13877;18.896;-99.222;2023-04-03T05:46:10;61.80;;;21.10;;
12412;SDS011;13877;18.896;-99.222;2023-04-03T05:48:39;45.38;;;19.08;;
12412;SDS011;13877;18.896;-99.222;2023-04-03T05:51:20;55.92;;;20.38;;
12412;SDS011;13877;18.896;-99.222;2023-04-03T05:54:09;50.50;;;20.05;;
12412;SDS011;13877;18.896;-99.222;2023-04-03T05:56:43;54.08;;;19.42;;
12412;SDS011;13877;18.896;-99.222;2023-04-03T05:59:10;51.42;;;19.80;;
12412;SDS011;13877;18.896;-99.222;2023-04-03T06:01:39;50.40;;;19.27;;
12412;SDS011;13877;18.896;-99.222;2023-04-03T06:04:06;53.90;;;21.17;;
12412;SDS011;13877;18.896;-99.222;2023-04-03T06:09:13;60.72;;;21.63;;
12412;SDS011;13877;18.896;-99.222;2023-04-03T06:11:41;60.58;;;24.20;;
12412;SDS011;13877;18.896;-99.222;2023-04-03T06:14:09;82.53;;;31.40;;
12412;SDS011;13877;18.896;-99.222;2023-04-03T06:16:36;102.00;;;36.85;;
12412;SDS011;13877;18.896;-99.222;2023-04-03T06:19:09;99.43;;;35.30;;
12412;SDS011;13877;18.896;-99.222;2023-04-03T06:21:41;102.25;;;33.63;;
12412;SDS011;13877;18.896;-99.222;2023-04-03T06:24:09;95.15;;;31.52;;
12412;SDS011;13877;18.896;-99.222;2023-04-03T06:29:06;87.65;;;32.88;;
12412;SDS011;13877;18.896;-99.222;2023-04-03T06:31:33;87.85;;;30.42;;
12412;SDS011;13877;18.896;-99.222;2023-04-03T06:34:02;92.65;;;27.55;;
12412;SDS011;13877;18.896;-99.222;2023-04-03T06:36:29;48.85;;;20.88;;
12412;SDS011;13877;18.896;-99.222;2023-04-03T06:38:57;62.33;;;20.63;;
12412;SDS011;13877;18.896;-99.222;2023-04-03T06:41:24;50.13;;;20.77;;
12412;SDS011;13877;18.896;-99.222;2023-04-03T06:43:52;53.85;;;19.52;;
12412;SDS011;13877;18.896;-99.222;2023-04-03T06:46:21;45.45;;;19.10;;
12412;SDS011;13877;18.896;-99.222;2023-04-03T06:48:48;58.20;;;18.42;;
12412;SDS011;13877;18.896;-99.222;2023-04-03T06:53:48;51.72;;;18.33;;
12412;SDS011;13877;18.896;-99.222;2023-04-03T06:56:16;55.10;;;19.20;;
12412;SDS011;13877;18.896;-99.222;2023-04-03T06:58:44;41.00;;;16.40;;
12412;SDS011;13877;18.896;-99.222;2023-04-03T07:01:13;46.25;;;15.95;;
12412;SDS011;13877;18.896;-99.222;2023-04-03T07:03:42;38.67;;;16.58;;
12412;SDS011;13877;18.896;-99.222;2023-04-03T07:06:12;51.33;;;15.73;;
12412;SDS011;13877;18.896;-99.222;2023-04-03T07:08:40;38.40;;;15.25;;
12412;SDS011;13877;18.896;-99.222;2023-04-03T07:11:08;33.85;;;15.60;;
12412;SDS011;13877;18.896;-99.222;2023-04-03T07:13:36;28.33;;;14.55;;
12412;SDS011;13877;18.896;-99.222;2023-04-03T07:16:04;36.65;;;15.07;;
12412;SDS011;13877;18.896;-99.222;2023-04-03T07:18:32;31.35;;;13.73;;
12412;SDS011;13877;18.896;-99.222;2023-04-03T07:20:59;34.15;;;14.13;;
12412;SDS011;13877;18.896;-99.222;2023-04-03T07:23:27;37.50;;;13.25;;
12412;SDS011;13877;18.896;-99.222;2023-04-03T07:25:53;41.33;;;15.60;;
12412;SDS011;13877;18.896;-99.222;2023-04-03T07:28:21;34.72;;;14.60;;
12412;SDS011;13877;18.896;-99.222;2023-04-03T07:30:52;36.72;;;14.32;;
12412;SDS011;13877;18.896;-99.222;2023-04-03T07:33:25;38.08;;;14.63;;
12412;SDS011;13877;18.896;-99.222;2023-04-03T07:35:52;42.90;;;13.93;;
12412;SDS011;13877;18.896;-99.222;2023-04-03T07:38:19;28.13;;;14.23;;
12412;SDS011;13877;18.896;-99.222;2023-04-03T07:40:47;35.30;;;14.80;;
12412;SDS011;13877;18.896;-99.222;2023-04-03T07:43:15;29.83;;;13.82;;
12412;SDS011;13877;18.896;-99.222;2023-04-03T07:45:43;44.33;;;12.82;;
12412;SDS011;13877;18.896;-99.222;2023-04-03T07:48:11;34.28;;;14.40;;
12412;SDS011;13877;18.896;-99.222;2023-04-03T07:50:41;28.42;;;12.82;;
12412;SDS011;13877;18.896;-99.222;2023-04-03T07:53:09;30.27;;;13.67;;
12412;SDS011;13877;18.896;-99.222;2023-04-03T07:55:36;29.50;;;13.38;;
12412;SDS011;13877;18.896;-99.222;2023-04-03T07:58:09;31.52;;;12.77;;
12412;SDS011;13877;18.896;-99.222;2023-04-03T08:00:37;27.85;;;11.95;;
12412;SDS011;13877;18.896;-99.222;2023-04-03T08:03:04;28.33;;;11.95;;
12412;SDS011;13877;18.896;-99.222;2023-04-03T08:05:31;25.15;;;11.90;;
12412;SDS011;13877;18.896;-99.222;2023-04-03T08:08:03;24.45;;;11.80;;
12412;SDS011;13877;18.896;-99.222;2023-04-03T08:10:31;35.10;;;11.70;;
12412;SDS011;13877;18.896;-99.222;2023-04-03T08:12:58;30.33;;;11.57;;
12412;SDS011;13877;18.896;-99.222;2023-04-03T08:15:25;39.47;;;11.15;;
12412;SDS011;13877;18.896;-99.222;2023-04-03T08:17:53;33.75;;;11.38;;
12412;SDS011;13877;18.896;-99.222;2023-04-03T08:20:21;30.90;;;11.05;;
12412;SDS011;13877;18.896;-99.222;2023-04-03T08:22:48;24.67;;;10.95;;
12412;SDS011;13877;18.896;-99.222;2023-04-03T08:25:15;34.53;;;11.50;;
12412;SDS011;13877;18.896;-99.222;2023-04-03T08:27:43;22.80;;;10.80;;
12412;SDS011;13877;18.896;-99.222;2023-04-03T08:30:10;22.60;;;11.10;;
12412;SDS011;13877;18.896;-99.222;2023-04-03T08:32:38;28.45;;;11.52;;
12412;SDS011;13877;18.896;-99.222;2023-04-03T08:35:07;26.25;;;11.73;;
12412;SDS011;13877;18.896;-99.222;2023-04-03T08:37:35;27.85;;;11.70;;
12412;SDS011;13877;18.896;-99.222;2023-04-03T08:40:03;24.73;;;11.45;;
12412;SDS011;13877;18.896;-99.222;2023-04-03T08:42:41;29.88;;;12.70;;
12412;SDS011;13877;18.896;-99.222;2023-04-03T08:47:55;29.45;;;12.25;;
12412;SDS011;13877;18.896;-99.222;2023-04-03T08:50:39;29.15;;;12.50;;
12412;SDS011;13877;18.896;-99.222;2023-04-03T08:53:14;29.17;;;13.25;;
12412;SDS011;13877;18.896;-99.222;2023-04-03T08:58:16;29.00;;;13.38;;
12412;SDS011;13877;18.896;-99.222;2023-04-03T09:00:47;24.23;;;12.23;;
12412;SDS011;13877;18.896;-99.222;2023-04-03T09:03:34;23.80;;;11.73;;
12412;SDS011;13877;18.896;-99.222;2023-04-03T09:06:20;32.53;;;11.27;;
12412;SDS011;13877;18.896;-99.222;2023-04-03T09:25:58;31.70;;;14.60;;
12412;SDS011;13877;18.896;-99.222;2023-04-03T09:28:37;23.70;;;11.63;;
12412;SDS011;13877;18.896;-99.222;2023-04-03T09:31:21;31.80;;;14.32;;
12412;SDS011;13877;18.896;-99.222;2023-04-03T09:33:54;31.33;;;12.98;;
12412;SDS011;13877;18.896;-99.222;2023-04-03T09:36:39;31.00;;;13.27;;
12412;SDS011;13877;18.896;-99.222;2023-04-03T09:39:12;30.65;;;12.82;;
12412;SDS011;13877;18.896;-99.222;2023-04-03T09:41:57;26.27;;;12.32;;
12412;SDS011;13877;18.896;-99.222;2023-04-03T09:44:33;30.73;;;12.80;;
12412;SDS011;13877;18.896;-99.222;2023-04-03T09:52:49;22.83;;;11.97;;
12412;SDS011;13877;18.896;-99.222;2023-04-03T09:55:18;23.52;;;10.95;;
12412;SDS011;13877;18.896;-99.222;2023-04-03T09:57:54;30.20;;;11.68;;
12412;SDS011;13877;18.896;-99.222;2023-04-03T10:00:44;23.45;;;11.18;;
12412;SDS011;13877;18.896;-99.222;2023-04-03T10:06:01;28.23;;;12.40;;
12412;SDS011;13877;18.896;-99.222;2023-04-03T10:08:33;33.80;;;11.65;;
12412;SDS011;13877;18.896;-99.222;2023-04-03T10:11:14;23.42;;;10.80;;
12412;SDS011;13877;18.896;-99.222;2023-04-03T10:14:00;26.85;;;11.70;;
12412;SDS011;13877;18.896;-99.222;2023-04-03T10:16:41;22.45;;;10.68;;
12412;SDS011;13877;18.896;-99.222;2023-04-03T10:19:17;25.65;;;11.00;;
12412;SDS011;13877;18.896;-99.222;2023-04-03T10:22:54;25.60;;;10.93;;
12412;SDS011;13877;18.896;-99.222;2023-04-03T10:27:44;21.17;;;10.30;;
12412;SDS011;13877;18.896;-99.222;2023-04-03T10:30:42;23.45;;;11.10;;
12412;SDS011;13877;18.896;-99.222;2023-04-03T10:33:27;26.83;;;10.68;;
12412;SDS011;13877;18.896;-99.222;2023-04-03T10:36:17;22.90;;;11.23;;
12412;SDS011;13877;18.896;-99.222;2023-04-03T10:39:02;23.85;;;10.30;;
12412;SDS011;13877;18.896;-99.222;2023-04-03T10:55:40;27.33;;;11.15;;
12412;SDS011;13877;18.896;-99.222;2023-04-03T10:58:20;20.52;;;11.25;;
12412;SDS011;13877;18.896;-99.222;2023-04-03T11:00:55;37.17;;;12.00;;
12412;SDS011;13877;18.896;-99.222;2023-04-03T11:03:54;41.20;;;10.63;;
12412;SDS011;13877;18.896;-99.222;2023-04-03T11:06:25;29.15;;;11.40;;
12412;SDS011;13877;18.896;-99.222;2023-04-03T11:09:22;30.08;;;11.18;;
12412;SDS011;13877;18.896;-99.222;2023-04-03T11:12:10;22.80;;;9.98;;
12412;SDS011;13877;18.896;-99.222;2023-04-03T11:14:43;18.77;;;11.00;;
12412;SDS011;13877;18.896;-99.222;2023-04-03T11:22:22;22.58;;;11.25;;
12412;SDS011;13877;18.896;-99.222;2023-04-03T11:28:00;25.17;;;11.25;;
12412;SDS011;13877;18.896;-99.222;2023-04-03T11:33:32;24.80;;;12.32;;
12412;SDS011;13877;18.896;-99.222;2023-04-03T11:36:27;41.95;;;16.83;;
12412;SDS011;13877;18.896;-99.222;2023-04-03T11:45:17;35.28;;;17.10;;
12412;SDS011;13877;18.896;-99.222;2023-04-03T11:47:53;43.78;;;18.23;;
12412;SDS011;13877;18.896;-99.222;2023-04-03T12:00:47;42.78;;;18.65;;
12412;SDS011;13877;18.896;-99.222;2023-04-03T12:05:56;37.17;;;17.10;;
12412;SDS011;13877;18.896;-99.222;2023-04-03T12:18:59;31.73;;;15.50;;
12412;SDS011;13877;18.896;-99.222;2023-04-03T12:29:20;39.13;;;15.95;;
12412;SDS011;13877;18.896;-99.222;2023-04-03T12:32:14;36.78;;;15.88;;
12412;SDS011;13877;18.896;-99.222;2023-04-03T12:42:52;44.45;;;15.95;;
12412;SDS011;13877;18.896;-99.222;2023-04-03T12:45:27;47.33;;;15.77;;
12412;SDS011;13877;18.896;-99.222;2023-04-03T12:47:55;37.83;;;17.20;;
12412;SDS011;13877;18.896;-99.222;2023-04-03T12:50:30;37.28;;;17.33;;
12412;SDS011;13877;18.896;-99.222;2023-04-03T12:55:28;35.28;;;17.15;;
12412;SDS011;13877;18.896;-99.222;2023-04-03T12:57:55;59.85;;;17.70;;
12412;SDS011;13877;18.896;-99.222;2023-04-03T13:00:29;53.22;;;19.77;;
12412;SDS011;13877;18.896;-99.222;2023-04-03T13:03:03;42.08;;;18.83;;
12412;SDS011;13877;18.896;-99.222;2023-04-03T13:05:32;42.90;;;17.95;;
12412;SDS011;13877;18.896;-99.222;2023-04-03T13:08:02;38.65;;;18.02;;
12412;SDS011;13877;18.896;-99.222;2023-04-03T13:10:31;51.78;;;18.60;;
12412;SDS011;13877;18.896;-99.222;2023-04-03T13:13:08;40.97;;;18.55;;
12412;SDS011;13877;18.896;-99.222;2023-04-03T13:15:40;60.20;;;19.65;;
12412;SDS011;13877;18.896;-99.222;2023-04-03T13:18:24;43.10;;;19.67;;
12412;SDS011;13877;18.896;-99.222;2023-04-03T13:20:57;40.08;;;17.90;;
12412;SDS011;13877;18.896;-99.222;2023-04-03T13:23:31;48.58;;;19.65;;
12412;SDS011;13877;18.896;-99.222;2023-04-03T13:26:00;42.65;;;20.13;;
12412;SDS011;13877;18.896;-99.222;2023-04-03T13:28:29;39.55;;;19.42;;
12412;SDS011;13877;18.896;-99.222;2023-04-03T13:31:05;43.30;;;18.63;;
12412;SDS011;13877;18.896;-99.222;2023-04-03T13:33:56;46.00;;;18.50;;
12412;SDS011;13877;18.896;-99.222;2023-04-03T13:36:41;45.92;;;18.73;;
12412;SDS011;13877;18.896;-99.222;2023-04-03T13:41:43;38.20;;;16.75;;
12412;SDS011;13877;18.896;-99.222;2023-04-03T13:44:16;32.10;;;15.55;;
12412;SDS011;13877;18.896;-99.222;2023-04-03T13:46:49;36.08;;;14.88;;
12412;SDS011;13877;18.896;-99.222;2023-04-03T13:49:32;31.90;;;13.70;;
12412;SDS011;13877;18.896;-99.222;2023-04-03T13:52:03;25.58;;;13.38;;
12412;SDS011;13877;18.896;-99.222;2023-04-03T13:54:54;34.70;;;13.63;;
12412;SDS011;13877;18.896;-99.222;2023-04-03T13:57:47;32.72;;;13.55;;
12412;SDS011;13877;18.896;-99.222;2023-04-03T14:00:36;40.22;;;16.55;;
12412;SDS011;13877;18.896;-99.222;2023-04-03T14:03:32;40.00;;;15.13;;
12412;SDS011;13877;18.896;-99.222;2023-04-03T14:06:13;37.33;;;13.32;;
12412;SDS011;13877;18.896;-99.222;2023-04-03T14:08:43;31.67;;;13.52;;
12412;SDS011;13877;18.896;-99.222;2023-04-03T14:11:15;36.72;;;14.07;;
12412;SDS011;13877;18.896;-99.222;2023-04-03T14:13:46;34.40;;;13.25;;
12412;SDS011;13877;18.896;-99.222;2023-04-03T14:16:21;33.17;;;14.20;;
12412;SDS011;13877;18.896;-99.222;2023-04-03T14:18:51;29.30;;;13.57;;
12412;SDS011;13877;18.896;-99.222;2023-04-03T14:21:19;30.63;;;14.27;;
12412;SDS011;13877;18.896;-99.222;2023-04-03T14:23:47;70.60;;;25.05;;
12412;SDS011;13877;18.896;-99.222;2023-04-03T14:26:20;93.55;;;32.60;;
12412;SDS011;13877;18.896;-99.222;2023-04-03T14:28:49;85.50;;;35.45;;
12412;SDS011;13877;18.896;-99.222;2023-04-03T14:31:18;101.88;;;40.22;;
12412;SDS011;13877;18.896;-99.222;2023-04-03T14:33:46;133.93;;;47.80;;
12412;SDS011;13877;18.896;-99.222;2023-04-03T14:36:14;103.88;;;36.47;;
12412;SDS011;13877;18.896;-99.222;2023-04-03T14:38:51;80.82;;;28.20;;
12412;SDS011;13877;18.896;-99.222;2023-04-03T14:41:19;65.40;;;25.17;;
12412;SDS011;13877;18.896;-99.222;2023-04-03T14:43:48;65.50;;;26.75;;
12412;SDS011;13877;18.896;-99.222;2023-04-03T14:46:38;91.00;;;32.38;;
12412;SDS011;13877;18.896;-99.222;2023-04-03T14:49:09;110.22;;;38.55;;
12412;SDS011;13877;18.896;-99.222;2023-04-03T14:51:40;65.22;;;25.13;;
12412;SDS011;13877;18.896;-99.222;2023-04-03T14:54:17;65.75;;;24.30;;
12412;SDS011;13877;18.896;-99.222;2023-04-03T14:56:48;38.45;;;14.77;;
12412;SDS011;13877;18.896;-99.222;2023-04-03T14:59:16;30.38;;;11.40;;
12412;SDS011;13877;18.896;-99.222;2023-04-03T15:01:45;35.90;;;15.98;;
12412;SDS011;13877;18.896;-99.222;2023-04-03T15:04:13;48.10;;;20.52;;
12412;SDS011;13877;18.896;-99.222;2023-04-03T15:06:43;92.07;;;35.33;;
12412;SDS011;13877;18.896;-99.222;2023-04-03T15:09:14;113.68;;;38.67;;
12412;SDS011;13877;18.896;-99.222;2023-04-03T15:11:52;99.28;;;32.08;;
12412;SDS011;13877;18.896;-99.222;2023-04-03T15:14:20;67.78;;;21.05;;
12412;SDS011;13877;18.896;-99.222;2023-04-03T15:16:48;45.83;;;18.23;;
12412;SDS011;13877;18.896;-99.222;2023-04-03T15:19:15;24.52;;;12.25;;
12412;SDS011;13877;18.896;-99.222;2023-04-03T15:21:42;42.22;;;14.40;;
12412;SDS011;13877;18.896;-99.222;2023-04-03T15:24:09;28.02;;;13.25;;
12412;SDS011;13877;18.896;-99.222;2023-04-03T15:26:37;31.95;;;15.98;;
12412;SDS011;13877;18.896;-99.222;2023-04-03T15:29:04;36.33;;;16.92;;
12412;SDS011;13877;18.896;-99.222;2023-04-03T15:31:32;40.72;;;17.25;;
12412;SDS011;13877;18.896;-99.222;2023-04-03T15:33:59;22.88;;;13.98;;
12412;SDS011;13877;18.896;-99.222;2023-04-03T15:36:26;27.05;;;12.45;;
12412;SDS011;13877;18.896;-99.222;2023-04-03T15:38:53;28.60;;;12.85;;
12412;SDS011;13877;18.896;-99.222;2023-04-03T15:41:21;26.45;;;13.10;;
12412;SDS011;13877;18.896;-99.222;2023-04-03T15:43:48;26.83;;;11.35;;
12412;SDS011;13877;18.896;-99.222;2023-04-03T15:46:15;28.92;;;11.77;;
12412;SDS011;13877;18.896;-99.222;2023-04-03T15:48:41;31.63;;;12.40;;
12412;SDS011;13877;18.896;-99.222;2023-04-03T15:51:10;27.15;;;13.43;;
12412;SDS011;13877;18.896;-99.222;2023-04-03T15:53:37;45.60;;;14.52;;
12412;SDS011;13877;18.896;-99.222;2023-04-03T15:56:04;33.20;;;15.10;;
12412;SDS011;13877;18.896;-99.222;2023-04-03T15:58:36;38.08;;;16.92;;
12412;SDS011;13877;18.896;-99.222;2023-04-03T16:01:03;54.33;;;17.08;;
12412;SDS011;13877;18.896;-99.222;2023-04-03T16:03:30;47.67;;;18.95;;
12412;SDS011;13877;18.896;-99.222;2023-04-03T16:05:57;45.90;;;17.55;;
12412;SDS011;13877;18.896;-99.222;2023-04-03T16:08:24;41.72;;;18.55;;
12412;SDS011;13877;18.896;-99.222;2023-04-03T16:10:51;57.47;;;18.63;;
12412;SDS011;13877;18.896;-99.222;2023-04-03T16:13:18;50.90;;;18.92;;
12412;SDS011;13877;18.896;-99.222;2023-04-03T16:15:45;54.05;;;17.90;;
12412;SDS011;13877;18.896;-99.222;2023-04-03T16:18:12;43.72;;;18.23;;
12412;SDS011;13877;18.896;-99.222;2023-04-03T16:20:40;49.28;;;18.40;;
12412;SDS011;13877;18.896;-99.222;2023-04-03T16:23:07;28.77;;;13.82;;
12412;SDS011;13877;18.896;-99.222;2023-04-03T16:25:34;36.53;;;14.25;;